sensor_id;sensor_type;location;lat;lon;timestamp;P1;durP1;ratioP1;P2;durP2;ratioP2
22557;SDS011;11445;53.816;8.902;2023-07-31T00:01:59;13.80;;;2.65;;
22557;SDS011;11445;53.816;8.902;2023-07-31T00:04:26;9.05;;;3.08;;
22557;SDS011;11445;53.816;8.902;2023-07-31T00:06:53;12.07;;;2.60;;
22557;SDS011;11445;53.816;8.902;2023-07-31T00:09:20;9.02;;;3.05;;
22557;SDS011;11445;53.816;8.902;2023-07-31T00:11:47;15.15;;;3.03;;
22557;SDS011;11445;53.816;8.902;2023-07-31T00:14:14;10.68;;;3.33;;
22557;SDS011;11445;53.816;8.902;2023-07-31T00:16:42;18.50;;;3.03;;
22557;SDS011;11445;53.816;8.902;2023-07-31T00:19:09;17.38;;;3.10;;
22557;SDS011;11445;53.816;8.902;2023-07-31T00:21:36;15.77;;;2.75;;
22557;SDS011;11445;53.816;8.902;2023-07-31T00:24:03;21.63;;;3.00;;
22557;SDS011;11445;53.816;8.902;2023-07-31T00:26:30;14.05;;;3.03;;
22557;SDS011;11445;53.816;8.902;2023-07-31T00:28:57;18.25;;;3.40;;
22557;SDS011;11445;53.816;8.902;2023-07-31T00:31:24;15.45;;;3.30;;
22557;SDS011;11445;53.816;8.902;2023-07-31T00:33:53;18.17;;;3.75;;
22557;SDS011;11445;53.816;8.902;2023-07-31T00:36:19;16.08;;;3.30;;
22557;SDS011;11445;53.816;8.902;2023-07-31T00:38:46;14.73;;;3.13;;
22557;SDS011;11445;53.816;8.902;2023-07-31T00:41:14;14.95;;;3.55;;
22557;SDS011;11445;53.816;8.902;2023-07-31T00:43:41;9.98;;;2.63;;
22557;SDS011;11445;53.816;8.902;2023-07-31T00:46:08;12.10;;;3.22;;
22557;SDS011;11445;53.816;8.902;2023-07-31T00:48:35;15.93;;;3.70;;
22557;SDS011;11445;53.816;8.902;2023-07-31T00:51:04;11.50;;;3.47;;
22557;SDS011;11445;53.816;8.902;2023-07-31T00:53:32;12.02;;;3.20;;
22557;SDS011;11445;53.816;8.902;2023-07-31T00:56:00;18.70;;;3.70;;
22557;SDS011;11445;53.816;8.902;2023-07-31T00:58:28;14.65;;;3.83;;
22557;SDS011;11445;53.816;8.902;2023-07-31T01:00:55;20.75;;;3.72;;
22557;SDS011;11445;53.816;8.902;2023-07-31T01:03:22;10.40;;;3.10;;
22557;SDS011;11445;53.816;8.902;2023-07-31T01:05:50;13.05;;;3.55;;
22557;SDS011;11445;53.816;8.902;2023-07-31T01:10:59;11.85;;;4.13;;
22557;SDS011;11445;53.816;8.902;2023-07-31T01:13:32;12.75;;;3.80;;
22557;SDS011;11445;53.816;8.902;2023-07-31T01:15:59;13.65;;;3.88;;
22557;SDS011;11445;53.816;8.902;2023-07-31T01:18:26;11.27;;;3.60;;
22557;SDS011;11445;53.816;8.902;2023-07-31T01:20:54;15.90;;;3.70;;
22557;SDS011;11445;53.816;8.902;2023-07-31T01:23:38;12.73;;;3.80;;
22557;SDS011;11445;53.816;8.902;2023-07-31T01:26:19;12.75;;;3.83;;
22557;SDS011;11445;53.816;8.902;2023-07-31T01:28:51;11.02;;;3.65;;
22557;SDS011;11445;53.816;8.902;2023-07-31T01:31:23;9.10;;;4.05;;
22557;SDS011;11445;53.816;8.902;2023-07-31T01:33:53;16.02;;;3.83;;
22557;SDS011;11445;53.816;8.902;2023-07-31T01:36:21;13.65;;;3.90;;
22557;SDS011;11445;53.816;8.902;2023-07-31T01:38:48;8.85;;;4.03;;
22557;SDS011;11445;53.816;8.902;2023-07-31T01:41:16;16.80;;;4.43;;
22557;SDS011;11445;53.816;8.902;2023-07-31T01:43:44;16.50;;;3.95;;
22557;SDS011;11445;53.816;8.902;2023-07-31T01:46:12;14.40;;;3.78;;
22557;SDS011;11445;53.816;8.902;2023-07-31T01:48:38;12.55;;;4.68;;
22557;SDS011;11445;53.816;8.902;2023-07-31T01:51:05;11.18;;;4.45;;
22557;SDS011;11445;53.816;8.902;2023-07-31T01:53:32;10.95;;;4.43;;
22557;SDS011;11445;53.816;8.902;2023-07-31T01:56:00;15.85;;;4.28;;
22557;SDS011;11445;53.816;8.902;2023-07-31T01:58:28;16.50;;;4.38;;
22557;SDS011;11445;53.816;8.902;2023-07-31T02:00:55;8.35;;;4.20;;
22557;SDS011;11445;53.816;8.902;2023-07-31T02:03:22;15.90;;;4.22;;
22557;SDS011;11445;53.816;8.902;2023-07-31T02:05:49;11.68;;;4.00;;
22557;SDS011;11445;53.816;8.902;2023-07-31T02:08:16;12.90;;;5.00;;
22557;SDS011;11445;53.816;8.902;2023-07-31T02:10:43;11.30;;;4.50;;
22557;SDS011;11445;53.816;8.902;2023-07-31T02:13:10;11.77;;;4.70;;
22557;SDS011;11445;53.816;8.902;2023-07-31T02:15:38;9.38;;;4.93;;
22557;SDS011;11445;53.816;8.902;2023-07-31T02:18:05;14.20;;;4.90;;
22557;SDS011;11445;53.816;8.902;2023-07-31T02:20:33;14.70;;;4.65;;
22557;SDS011;11445;53.816;8.902;2023-07-31T02:23:00;18.00;;;5.20;;
22557;SDS011;11445;53.816;8.902;2023-07-31T02:25:27;11.68;;;5.40;;
22557;SDS011;11445;53.816;8.902;2023-07-31T02:27:54;16.17;;;4.97;;
22557;SDS011;11445;53.816;8.902;2023-07-31T02:30:21;13.43;;;5.47;;
22557;SDS011;11445;53.816;8.902;2023-07-31T02:32:49;18.42;;;5.05;;
22557;SDS011;11445;53.816;8.902;2023-07-31T02:35:16;18.05;;;5.70;;
22557;SDS011;11445;53.816;8.902;2023-07-31T02:37:43;13.57;;;5.15;;
22557;SDS011;11445;53.816;8.902;2023-07-31T02:40:10;12.02;;;5.30;;
22557;SDS011;11445;53.816;8.902;2023-07-31T02:42:38;11.40;;;4.97;;
22557;SDS011;11445;53.816;8.902;2023-07-31T02:45:05;16.88;;;5.03;;
22557;SDS011;11445;53.816;8.902;2023-07-31T02:47:33;13.02;;;5.22;;
22557;SDS011;11445;53.816;8.902;2023-07-31T02:50:01;16.00;;;5.03;;
22557;SDS011;11445;53.816;8.902;2023-07-31T02:52:28;11.07;;;5.00;;
22557;SDS011;11445;53.816;8.902;2023-07-31T02:54:56;15.55;;;5.22;;
22557;SDS011;11445;53.816;8.902;2023-07-31T02:57:23;13.85;;;4.93;;
22557;SDS011;11445;53.816;8.902;2023-07-31T02:59:50;13.60;;;4.80;;
22557;SDS011;11445;53.816;8.902;2023-07-31T03:02:17;11.68;;;4.75;;
22557;SDS011;11445;53.816;8.902;2023-07-31T03:04:44;15.23;;;4.70;;
22557;SDS011;11445;53.816;8.902;2023-07-31T03:07:12;8.25;;;4.57;;
22557;SDS011;11445;53.816;8.902;2023-07-31T03:09:39;9.30;;;4.45;;
22557;SDS011;11445;53.816;8.902;2023-07-31T03:12:07;11.00;;;4.65;;
22557;SDS011;11445;53.816;8.902;2023-07-31T03:14:34;7.53;;;3.92;;
22557;SDS011;11445;53.816;8.902;2023-07-31T03:17:01;11.02;;;3.75;;
22557;SDS011;11445;53.816;8.902;2023-07-31T03:19:30;11.63;;;4.30;;
22557;SDS011;11445;53.816;8.902;2023-07-31T03:21:57;10.13;;;4.38;;
22557;SDS011;11445;53.816;8.902;2023-07-31T03:24:25;6.78;;;4.00;;
22557;SDS011;11445;53.816;8.902;2023-07-31T03:26:52;7.78;;;3.97;;
22557;SDS011;11445;53.816;8.902;2023-07-31T03:29:19;7.70;;;3.83;;
22557;SDS011;11445;53.816;8.902;2023-07-31T03:31:46;9.45;;;4.20;;
22557;SDS011;11445;53.816;8.902;2023-07-31T03:34:13;8.25;;;3.97;;
22557;SDS011;11445;53.816;8.902;2023-07-31T03:36:40;8.93;;;3.88;;
22557;SDS011;11445;53.816;8.902;2023-07-31T03:39:07;6.85;;;3.53;;
22557;SDS011;11445;53.816;8.902;2023-07-31T03:41:35;8.65;;;3.53;;
22557;SDS011;11445;53.816;8.902;2023-07-31T03:44:02;4.22;;;3.70;;
22557;SDS011;11445;53.816;8.902;2023-07-31T03:46:29;7.45;;;3.72;;
22557;SDS011;11445;53.816;8.902;2023-07-31T03:48:56;10.93;;;3.75;;
22557;SDS011;11445;53.816;8.902;2023-07-31T03:51:23;5.43;;;3.75;;
22557;SDS011;11445;53.816;8.902;2023-07-31T03:53:50;5.55;;;3.15;;
22557;SDS011;11445;53.816;8.902;2023-07-31T03:56:17;5.32;;;3.00;;
22557;SDS011;11445;53.816;8.902;2023-07-31T03:58:45;3.15;;;2.85;;
22557;SDS011;11445;53.816;8.902;2023-07-31T04:01:12;4.93;;;2.90;;
22557;SDS011;11445;53.816;8.902;2023-07-31T04:03:39;3.50;;;2.78;;
22557;SDS011;11445;53.816;8.902;2023-07-31T04:06:06;4.80;;;2.50;;
22557;SDS011;11445;53.816;8.902;2023-07-31T04:08:33;4.68;;;2.63;;
22557;SDS011;11445;53.816;8.902;2023-07-31T04:11:00;4.03;;;2.20;;
22557;SDS011;11445;53.816;8.902;2023-07-31T04:13:28;2.35;;;2.15;;
22557;SDS011;11445;53.816;8.902;2023-07-31T04:15:57;2.53;;;2.33;;
22557;SDS011;11445;53.816;8.902;2023-07-31T04:18:24;2.30;;;1.80;;
22557;SDS011;11445;53.816;8.902;2023-07-31T04:20:51;2.25;;;2.05;;
22557;SDS011;11445;53.816;8.902;2023-07-31T04:23:18;4.20;;;2.22;;
22557;SDS011;11445;53.816;8.902;2023-07-31T04:25:45;5.50;;;2.50;;
22557;SDS011;11445;53.816;8.902;2023-07-31T04:28:12;4.13;;;1.98;;
22557;SDS011;11445;53.816;8.902;2023-07-31T04:30:39;3.05;;;2.75;;
22557;SDS011;11445;53.816;8.902;2023-07-31T04:33:08;2.83;;;2.17;;
22557;SDS011;11445;53.816;8.902;2023-07-31T04:35:35;4.10;;;1.98;;
22557;SDS011;11445;53.816;8.902;2023-07-31T04:38:02;2.00;;;1.77;;
22557;SDS011;11445;53.816;8.902;2023-07-31T04:40:29;2.28;;;2.17;;
22557;SDS011;11445;53.816;8.902;2023-07-31T04:42:56;2.33;;;2.13;;
22557;SDS011;11445;53.816;8.902;2023-07-31T04:45:23;2.45;;;1.83;;
22557;SDS011;11445;53.816;8.902;2023-07-31T04:47:50;2.33;;;2.13;;
22557;SDS011;11445;53.816;8.902;2023-07-31T04:50:18;2.78;;;2.17;;
22557;SDS011;11445;53.816;8.902;2023-07-31T04:52:45;3.03;;;2.53;;
22557;SDS011;11445;53.816;8.902;2023-07-31T04:55:12;2.97;;;2.67;;
22557;SDS011;11445;53.816;8.902;2023-07-31T04:57:39;4.40;;;2.70;;
22557;SDS011;11445;53.816;8.902;2023-07-31T05:00:06;6.97;;;3.08;;
22557;SDS011;11445;53.816;8.902;2023-07-31T05:02:34;3.40;;;3.20;;
22557;SDS011;11445;53.816;8.902;2023-07-31T05:05:01;3.50;;;3.22;;
22557;SDS011;11445;53.816;8.902;2023-07-31T05:07:29;3.42;;;3.13;;
22557;SDS011;11445;53.816;8.902;2023-07-31T05:09:56;4.57;;;3.10;;
22557;SDS011;11445;53.816;8.902;2023-07-31T05:12:23;4.15;;;3.20;;
22557;SDS011;11445;53.816;8.902;2023-07-31T05:14:49;3.63;;;3.33;;
22557;SDS011;11445;53.816;8.902;2023-07-31T05:17:16;3.25;;;3.05;;
22557;SDS011;11445;53.816;8.902;2023-07-31T05:19:43;4.93;;;3.30;;
22557;SDS011;11445;53.816;8.902;2023-07-31T05:22:10;3.50;;;3.20;;
22557;SDS011;11445;53.816;8.902;2023-07-31T05:24:38;3.47;;;3.17;;
22557;SDS011;11445;53.816;8.902;2023-07-31T05:27:05;3.28;;;3.08;;
22557;SDS011;11445;53.816;8.902;2023-07-31T05:29:32;4.97;;;3.17;;
22557;SDS011;11445;53.816;8.902;2023-07-31T05:31:59;4.63;;;3.47;;
22557;SDS011;11445;53.816;8.902;2023-07-31T05:34:26;3.25;;;2.97;;
22557;SDS011;11445;53.816;8.902;2023-07-31T05:36:53;4.93;;;3.30;;
22557;SDS011;11445;53.816;8.902;2023-07-31T05:39:19;3.10;;;2.80;;
22557;SDS011;11445;53.816;8.902;2023-07-31T05:41:47;3.60;;;2.95;;
22557;SDS011;11445;53.816;8.902;2023-07-31T05:44:14;3.25;;;2.80;;
22557;SDS011;11445;53.816;8.902;2023-07-31T05:46:41;3.10;;;2.90;;
22557;SDS011;11445;53.816;8.902;2023-07-31T05:49:08;3.00;;;2.80;;
22557;SDS011;11445;53.816;8.902;2023-07-31T05:51:35;3.22;;;3.00;;
22557;SDS011;11445;53.816;8.902;2023-07-31T05:54:01;5.75;;;2.75;;
22557;SDS011;11445;53.816;8.902;2023-07-31T05:56:28;2.83;;;2.63;;
22557;SDS011;11445;53.816;8.902;2023-07-31T05:58:58;2.55;;;2.35;;
22557;SDS011;11445;53.816;8.902;2023-07-31T06:01:24;2.33;;;2.13;;
22557;SDS011;11445;53.816;8.902;2023-07-31T06:03:51;4.50;;;2.40;;
22557;SDS011;11445;53.816;8.902;2023-07-31T06:06:18;3.15;;;2.40;;
22557;SDS011;11445;53.816;8.902;2023-07-31T06:08:45;2.40;;;2.20;;
22557;SDS011;11445;53.816;8.902;2023-07-31T06:11:12;2.33;;;2.13;;
22557;SDS011;11445;53.816;8.902;2023-07-31T06:13:39;2.22;;;2.03;;
22557;SDS011;11445;53.816;8.902;2023-07-31T06:16:07;2.67;;;2.47;;
22557;SDS011;11445;53.816;8.902;2023-07-31T06:18:34;5.43;;;2.42;;
22557;SDS011;11445;53.816;8.902;2023-07-31T06:21:00;6.30;;;2.25;;
22557;SDS011;11445;53.816;8.902;2023-07-31T06:23:27;2.60;;;2.40;;
22557;SDS011;11445;53.816;8.902;2023-07-31T06:25:54;2.33;;;2.20;;
22557;SDS011;11445;53.816;8.902;2023-07-31T06:28:23;3.22;;;2.35;;
22557;SDS011;11445;53.816;8.902;2023-07-31T06:30:55;2.90;;;2.70;;
22557;SDS011;11445;53.816;8.902;2023-07-31T06:33:23;2.65;;;2.30;;
22557;SDS011;11445;53.816;8.902;2023-07-31T06:35:50;3.03;;;2.83;;
22557;SDS011;11445;53.816;8.902;2023-07-31T06:38:18;3.58;;;2.83;;
22557;SDS011;11445;53.816;8.902;2023-07-31T06:40:48;3.38;;;3.10;;
22557;SDS011;11445;53.816;8.902;2023-07-31T06:43:15;3.50;;;3.20;;
22557;SDS011;11445;53.816;8.902;2023-07-31T06:45:42;3.55;;;3.25;;
22557;SDS011;11445;53.816;8.902;2023-07-31T06:48:09;6.75;;;3.05;;
22557;SDS011;11445;53.816;8.902;2023-07-31T06:50:37;3.70;;;3.40;;
22557;SDS011;11445;53.816;8.902;2023-07-31T06:53:04;3.85;;;3.03;;
22557;SDS011;11445;53.816;8.902;2023-07-31T06:55:31;3.58;;;3.38;;
22557;SDS011;11445;53.816;8.902;2023-07-31T06:57:59;3.78;;;3.35;;
22557;SDS011;11445;53.816;8.902;2023-07-31T07:00:25;3.08;;;2.88;;
22557;SDS011;11445;53.816;8.902;2023-07-31T07:02:53;3.58;;;3.38;;
22557;SDS011;11445;53.816;8.902;2023-07-31T07:05:20;3.88;;;3.58;;
22557;SDS011;11445;53.816;8.902;2023-07-31T07:07:50;6.25;;;3.92;;
22557;SDS011;11445;53.816;8.902;2023-07-31T07:10:17;3.20;;;3.00;;
22557;SDS011;11445;53.816;8.902;2023-07-31T07:12:44;4.00;;;3.60;;
22557;SDS011;11445;53.816;8.902;2023-07-31T07:15:11;3.42;;;3.22;;
22557;SDS011;11445;53.816;8.902;2023-07-31T07:17:37;5.13;;;3.38;;
22557;SDS011;11445;53.816;8.902;2023-07-31T07:20:05;5.47;;;3.47;;
22557;SDS011;11445;53.816;8.902;2023-07-31T07:22:33;3.90;;;3.60;;
22557;SDS011;11445;53.816;8.902;2023-07-31T07:25:01;3.92;;;3.63;;
22557;SDS011;11445;53.816;8.902;2023-07-31T07:27:28;3.88;;;3.38;;
22557;SDS011;11445;53.816;8.902;2023-07-31T07:29:55;4.00;;;3.70;;
22557;SDS011;11445;53.816;8.902;2023-07-31T07:32:22;4.30;;;4.00;;
22557;SDS011;11445;53.816;8.902;2023-07-31T07:34:49;4.03;;;3.72;;
22557;SDS011;11445;53.816;8.902;2023-07-31T07:37:16;4.35;;;3.95;;
22557;SDS011;11445;53.816;8.902;2023-07-31T07:39:43;5.95;;;3.50;;
22557;SDS011;11445;53.816;8.902;2023-07-31T07:42:12;4.43;;;4.13;;
22557;SDS011;11445;53.816;8.902;2023-07-31T07:44:39;6.00;;;4.53;;
22557;SDS011;11445;53.816;8.902;2023-07-31T07:47:06;4.78;;;4.28;;
22557;SDS011;11445;53.816;8.902;2023-07-31T07:49:32;5.47;;;4.00;;
22557;SDS011;11445;53.816;8.902;2023-07-31T07:52:00;5.30;;;4.90;;
22557;SDS011;11445;53.816;8.902;2023-07-31T07:54:27;5.30;;;4.80;;
22557;SDS011;11445;53.816;8.902;2023-07-31T07:56:54;6.40;;;4.28;;
22557;SDS011;11445;53.816;8.902;2023-07-31T07:59:22;4.32;;;4.03;;
22557;SDS011;11445;53.816;8.902;2023-07-31T08:01:49;4.93;;;4.18;;
22557;SDS011;11445;53.816;8.902;2023-07-31T08:04:16;6.22;;;4.85;;
22557;SDS011;11445;53.816;8.902;2023-07-31T08:06:42;3.95;;;3.65;;
22557;SDS011;11445;53.816;8.902;2023-07-31T08:09:09;3.90;;;3.60;;
22557;SDS011;11445;53.816;8.902;2023-07-31T08:11:36;3.45;;;3.15;;
22557;SDS011;11445;53.816;8.902;2023-07-31T08:14:03;3.35;;;3.05;;
22557;SDS011;11445;53.816;8.902;2023-07-31T08:16:31;2.70;;;2.45;;
22557;SDS011;11445;53.816;8.902;2023-07-31T08:18:58;2.55;;;2.35;;
22557;SDS011;11445;53.816;8.902;2023-07-31T08:21:25;2.47;;;2.30;;
22557;SDS011;11445;53.816;8.902;2023-07-31T08:23:52;2.20;;;2.10;;
22557;SDS011;11445;53.816;8.902;2023-07-31T08:26:19;2.40;;;2.20;;
22557;SDS011;11445;53.816;8.902;2023-07-31T08:28:46;2.13;;;1.90;;
22557;SDS011;11445;53.816;8.902;2023-07-31T08:31:13;3.03;;;1.60;;
22557;SDS011;11445;53.816;8.902;2023-07-31T08:33:41;1.60;;;1.50;;
22557;SDS011;11445;53.816;8.902;2023-07-31T08:36:08;2.35;;;1.50;;
22557;SDS011;11445;53.816;8.902;2023-07-31T08:38:35;2.40;;;1.77;;
22557;SDS011;11445;53.816;8.902;2023-07-31T08:41:02;2.50;;;1.85;;
22557;SDS011;11445;53.816;8.902;2023-07-31T08:43:29;1.80;;;1.67;;
22557;SDS011;11445;53.816;8.902;2023-07-31T08:45:57;2.10;;;1.80;;
22557;SDS011;11445;53.816;8.902;2023-07-31T08:48:24;4.32;;;1.98;;
22557;SDS011;11445;53.816;8.902;2023-07-31T08:50:53;2.95;;;1.90;;
22557;SDS011;11445;53.816;8.902;2023-07-31T08:53:20;2.05;;;1.83;;
22557;SDS011;11445;53.816;8.902;2023-07-31T08:55:47;1.90;;;1.70;;
22557;SDS011;11445;53.816;8.902;2023-07-31T08:58:15;3.00;;;1.65;;
22557;SDS011;11445;53.816;8.902;2023-07-31T09:00:45;2.05;;;1.90;;
22557;SDS011;11445;53.816;8.902;2023-07-31T09:03:13;2.33;;;2.13;;
22557;SDS011;11445;53.816;8.902;2023-07-31T09:05:42;1.80;;;1.70;;
22557;SDS011;11445;53.816;8.902;2023-07-31T09:08:12;2.08;;;1.77;;
22557;SDS011;11445;53.816;8.902;2023-07-31T09:10:41;2.17;;;2.00;;
22557;SDS011;11445;53.816;8.902;2023-07-31T09:13:08;2.17;;;2.08;;
22557;SDS011;11445;53.816;8.902;2023-07-31T09:15:36;2.50;;;2.30;;
22557;SDS011;11445;53.816;8.902;2023-07-31T09:18:04;6.45;;;2.38;;
22557;SDS011;11445;53.816;8.902;2023-07-31T09:20:31;2.25;;;2.05;;
22557;SDS011;11445;53.816;8.902;2023-07-31T09:23:04;2.65;;;2.15;;
22557;SDS011;11445;53.816;8.902;2023-07-31T09:25:34;2.10;;;1.92;;
22557;SDS011;11445;53.816;8.902;2023-07-31T09:28:02;1.92;;;1.67;;
22557;SDS011;11445;53.816;8.902;2023-07-31T09:30:30;2.97;;;2.45;;
22557;SDS011;11445;53.816;8.902;2023-07-31T09:33:09;4.50;;;1.80;;
22557;SDS011;11445;53.816;8.902;2023-07-31T09:35:36;1.98;;;1.67;;
22557;SDS011;11445;53.816;8.902;2023-07-31T09:38:06;3.42;;;1.77;;
22557;SDS011;11445;53.816;8.902;2023-07-31T09:40:36;2.47;;;1.80;;
22557;SDS011;11445;53.816;8.902;2023-07-31T09:43:04;1.83;;;1.73;;
22557;SDS011;11445;53.816;8.902;2023-07-31T09:45:33;3.17;;;1.77;;
22557;SDS011;11445;53.816;8.902;2023-07-31T09:48:01;1.90;;;1.80;;
22557;SDS011;11445;53.816;8.902;2023-07-31T09:50:29;3.03;;;2.10;;
22557;SDS011;11445;53.816;8.902;2023-07-31T09:52:56;2.70;;;1.80;;
22557;SDS011;11445;53.816;8.902;2023-07-31T09:55:23;2.00;;;1.70;;
22557;SDS011;11445;53.816;8.902;2023-07-31T09:57:52;2.47;;;1.90;;
22557;SDS011;11445;53.816;8.902;2023-07-31T10:00:23;1.75;;;1.52;;
22557;SDS011;11445;53.816;8.902;2023-07-31T10:02:53;1.60;;;1.50;;
22557;SDS011;11445;53.816;8.902;2023-07-31T10:05:20;2.72;;;1.45;;
22557;SDS011;11445;53.816;8.902;2023-07-31T10:07:50;2.33;;;1.65;;
22557;SDS011;11445;53.816;8.902;2023-07-31T10:10:19;5.63;;;1.70;;
22557;SDS011;11445;53.816;8.902;2023-07-31T10:12:48;2.47;;;1.58;;
22557;SDS011;11445;53.816;8.902;2023-07-31T10:15:17;5.00;;;1.75;;
22557;SDS011;11445;53.816;8.902;2023-07-31T10:17:44;4.88;;;1.60;;
22557;SDS011;11445;53.816;8.902;2023-07-31T10:20:14;4.72;;;1.63;;
22557;SDS011;11445;53.816;8.902;2023-07-31T10:22:41;2.80;;;1.30;;
22557;SDS011;11445;53.816;8.902;2023-07-31T10:25:09;3.05;;;1.10;;
22557;SDS011;11445;53.816;8.902;2023-07-31T10:27:36;1.80;;;1.13;;
22557;SDS011;11445;53.816;8.902;2023-07-31T10:30:05;2.22;;;1.15;;
22557;SDS011;11445;53.816;8.902;2023-07-31T10:32:37;1.67;;;1.10;;
22557;SDS011;11445;53.816;8.902;2023-07-31T10:35:07;1.33;;;1.10;;
22557;SDS011;11445;53.816;8.902;2023-07-31T10:37:38;1.55;;;1.00;;
22557;SDS011;11445;53.816;8.902;2023-07-31T10:40:09;1.98;;;0.95;;
22557;SDS011;11445;53.816;8.902;2023-07-31T10:42:38;1.90;;;1.10;;
22557;SDS011;11445;53.816;8.902;2023-07-31T10:45:12;1.90;;;1.17;;
22557;SDS011;11445;53.816;8.902;2023-07-31T10:47:43;3.50;;;1.30;;
22557;SDS011;11445;53.816;8.902;2023-07-31T10:50:11;1.70;;;1.20;;
22557;SDS011;11445;53.816;8.902;2023-07-31T12:40:19;0.52;;;0.40;;
22557;SDS011;11445;53.816;8.902;2023-07-31T12:42:46;0.40;;;0.40;;
22557;SDS011;11445;53.816;8.902;2023-07-31T12:45:13;0.43;;;0.40;;
22557;SDS011;11445;53.816;8.902;2023-07-31T12:47:40;0.47;;;0.40;;
22557;SDS011;11445;53.816;8.902;2023-07-31T12:50:07;0.40;;;0.40;;
22557;SDS011;11445;53.816;8.902;2023-07-31T12:52:34;0.55;;;0.40;;
22557;SDS011;11445;53.816;8.902;2023-07-31T12:55:01;0.50;;;0.50;;
22557;SDS011;11445;53.816;8.902;2023-07-31T12:57:29;1.25;;;0.40;;
22557;SDS011;11445;53.816;8.902;2023-07-31T12:59:56;0.50;;;0.50;;
22557;SDS011;11445;53.816;8.902;2023-07-31T13:02:23;0.28;;;0.28;;
22557;SDS011;11445;53.816;8.902;2023-07-31T13:04:49;0.40;;;0.40;;
22557;SDS011;11445;53.816;8.902;2023-07-31T13:07:16;0.40;;;0.40;;
22557;SDS011;11445;53.816;8.902;2023-07-31T13:09:43;0.47;;;0.47;;
22557;SDS011;11445;53.816;8.902;2023-07-31T13:12:10;0.60;;;0.60;;
22557;SDS011;11445;53.816;8.902;2023-07-31T13:14:38;4.68;;;0.70;;
22557;SDS011;11445;53.816;8.902;2023-07-31T13:17:05;0.55;;;0.45;;
22557;SDS011;11445;53.816;8.902;2023-07-31T13:19:32;0.95;;;0.60;;
22557;SDS011;11445;53.816;8.902;2023-07-31T13:21:59;1.35;;;0.32;;
22557;SDS011;11445;53.816;8.902;2023-07-31T13:24:26;2.05;;;0.60;;
22557;SDS011;11445;53.816;8.902;2023-07-31T13:26:53;0.40;;;0.40;;
22557;SDS011;11445;53.816;8.902;2023-07-31T13:29:19;1.42;;;0.50;;
22557;SDS011;11445;53.816;8.902;2023-07-31T13:31:48;3.05;;;0.40;;
22557;SDS011;11445;53.816;8.902;2023-07-31T13:34:15;0.70;;;0.50;;
22557;SDS011;11445;53.816;8.902;2023-07-31T13:36:42;2.33;;;0.30;;
22557;SDS011;11445;53.816;8.902;2023-07-31T13:39:08;2.70;;;0.38;;
22557;SDS011;11445;53.816;8.902;2023-07-31T13:41:35;0.80;;;0.57;;
22557;SDS011;11445;53.816;8.902;2023-07-31T13:44:02;0.50;;;0.50;;
22557;SDS011;11445;53.816;8.902;2023-07-31T13:46:29;0.68;;;0.47;;
22557;SDS011;11445;53.816;8.902;2023-07-31T13:51:28;0.93;;;0.50;;
22557;SDS011;11445;53.816;8.902;2023-07-31T13:53:55;1.02;;;0.50;;
22557;SDS011;11445;53.816;8.902;2023-07-31T13:56:21;1.65;;;0.73;;
22557;SDS011;11445;53.816;8.902;2023-07-31T13:58:48;0.63;;;0.43;;
22557;SDS011;11445;53.816;8.902;2023-07-31T14:01:15;2.35;;;0.40;;
22557;SDS011;11445;53.816;8.902;2023-07-31T14:03:42;1.17;;;0.40;;
22557;SDS011;11445;53.816;8.902;2023-07-31T14:06:09;0.28;;;0.28;;
22557;SDS011;11445;53.816;8.902;2023-07-31T14:08:37;0.82;;;0.50;;
22557;SDS011;11445;53.816;8.902;2023-07-31T14:11:04;0.47;;;0.35;;
22557;SDS011;11445;53.816;8.902;2023-07-31T14:13:31;0.30;;;0.30;;
22557;SDS011;11445;53.816;8.902;2023-07-31T14:15:57;0.45;;;0.30;;
22557;SDS011;11445;53.816;8.902;2023-07-31T14:18:24;0.45;;;0.30;;
22557;SDS011;11445;53.816;8.902;2023-07-31T14:20:51;0.30;;;0.30;;
22557;SDS011;11445;53.816;8.902;2023-07-31T14:23:18;0.20;;;0.20;;
22557;SDS011;11445;53.816;8.902;2023-07-31T14:25:47;0.55;;;0.40;;
22557;SDS011;11445;53.816;8.902;2023-07-31T14:28:14;0.30;;;0.30;;
22557;SDS011;11445;53.816;8.902;2023-07-31T14:30:41;2.35;;;0.30;;
22557;SDS011;11445;53.816;8.902;2023-07-31T14:33:08;0.30;;;0.30;;
22557;SDS011;11445;53.816;8.902;2023-07-31T14:35:34;1.65;;;0.40;;
22557;SDS011;11445;53.816;8.902;2023-07-31T14:38:01;3.50;;;0.40;;
22557;SDS011;11445;53.816;8.902;2023-07-31T14:40:28;0.57;;;0.38;;
22557;SDS011;11445;53.816;8.902;2023-07-31T14:42:56;3.53;;;0.40;;
22557;SDS011;11445;53.816;8.902;2023-07-31T14:45:23;0.75;;;0.40;;
22557;SDS011;11445;53.816;8.902;2023-07-31T14:47:50;2.30;;;0.30;;
22557;SDS011;11445;53.816;8.902;2023-07-31T14:50:17;3.45;;;0.50;;
22557;SDS011;11445;53.816;8.902;2023-07-31T14:52:46;0.47;;;0.40;;
22557;SDS011;11445;53.816;8.902;2023-07-31T14:55:12;2.10;;;0.40;;
22557;SDS011;11445;53.816;8.902;2023-07-31T14:57:39;0.32;;;0.30;;
22557;SDS011;11445;53.816;8.902;2023-07-31T15:00:08;0.30;;;0.30;;
22557;SDS011;11445;53.816;8.902;2023-07-31T15:02:35;1.67;;;0.30;;
22557;SDS011;11445;53.816;8.902;2023-07-31T15:05:02;0.45;;;0.40;;
22557;SDS011;11445;53.816;8.902;2023-07-31T15:07:30;0.40;;;0.40;;
22557;SDS011;11445;53.816;8.902;2023-07-31T15:09:56;1.30;;;0.40;;
22557;SDS011;11445;53.816;8.902;2023-07-31T15:12:23;0.85;;;0.32;;
22557;SDS011;11445;53.816;8.902;2023-07-31T15:14:51;1.15;;;0.43;;
22557;SDS011;11445;53.816;8.902;2023-07-31T15:17:19;0.30;;;0.30;;
22557;SDS011;11445;53.816;8.902;2023-07-31T15:19:46;0.40;;;0.40;;
22557;SDS011;11445;53.816;8.902;2023-07-31T15:22:13;0.55;;;0.40;;
22557;SDS011;11445;53.816;8.902;2023-07-31T15:24:40;1.90;;;0.30;;
22557;SDS011;11445;53.816;8.902;2023-07-31T15:27:07;0.50;;;0.30;;
22557;SDS011;11445;53.816;8.902;2023-07-31T15:29:34;3.30;;;0.50;;
22557;SDS011;11445;53.816;8.902;2023-07-31T15:32:02;2.83;;;0.50;;
22557;SDS011;11445;53.816;8.902;2023-07-31T15:34:31;2.38;;;0.30;;
22557;SDS011;11445;53.816;8.902;2023-07-31T15:36:58;2.42;;;0.40;;
22557;SDS011;11445;53.816;8.902;2023-07-31T15:39:25;1.00;;;0.40;;
22557;SDS011;11445;53.816;8.902;2023-07-31T15:41:51;0.57;;;0.50;;
22557;SDS011;11445;53.816;8.902;2023-07-31T15:44:18;0.40;;;0.40;;
22557;SDS011;11445;53.816;8.902;2023-07-31T15:46:46;5.28;;;0.40;;
22557;SDS011;11445;53.816;8.902;2023-07-31T15:49:13;0.90;;;0.40;;
22557;SDS011;11445;53.816;8.902;2023-07-31T15:51:41;1.08;;;0.40;;
22557;SDS011;11445;53.816;8.902;2023-07-31T15:54:08;0.65;;;0.50;;
22557;SDS011;11445;53.816;8.902;2023-07-31T15:56:35;0.60;;;0.40;;
22557;SDS011;11445;53.816;8.902;2023-07-31T15:59:02;0.40;;;0.40;;
22557;SDS011;11445;53.816;8.902;2023-07-31T16:01:29;0.70;;;0.47;;
22557;SDS011;11445;53.816;8.902;2023-07-31T16:03:56;1.33;;;0.50;;
22557;SDS011;11445;53.816;8.902;2023-07-31T16:06:23;0.50;;;0.40;;
22557;SDS011;11445;53.816;8.902;2023-07-31T16:08:51;0.50;;;0.50;;
22557;SDS011;11445;53.816;8.902;2023-07-31T16:11:19;3.05;;;0.70;;
22557;SDS011;11445;53.816;8.902;2023-07-31T16:13:46;1.15;;;0.45;;
22557;SDS011;11445;53.816;8.902;2023-07-31T16:16:13;0.73;;;0.60;;
22557;SDS011;11445;53.816;8.902;2023-07-31T16:18:40;1.10;;;0.60;;
22557;SDS011;11445;53.816;8.902;2023-07-31T16:21:06;0.57;;;0.57;;
22557;SDS011;11445;53.816;8.902;2023-07-31T16:23:33;1.27;;;0.50;;
22557;SDS011;11445;53.816;8.902;2023-07-31T16:26:01;4.72;;;0.80;;
22557;SDS011;11445;53.816;8.902;2023-07-31T16:28:28;0.77;;;0.70;;
22557;SDS011;11445;53.816;8.902;2023-07-31T16:30:55;0.50;;;0.50;;
22557;SDS011;11445;53.816;8.902;2023-07-31T16:33:22;1.98;;;0.80;;
22557;SDS011;11445;53.816;8.902;2023-07-31T16:35:49;0.70;;;0.70;;
22557;SDS011;11445;53.816;8.902;2023-07-31T16:38:16;1.88;;;0.70;;
22557;SDS011;11445;53.816;8.902;2023-07-31T16:40:42;0.75;;;0.70;;